sensor_id;sensor_type;location;lat;lon;timestamp;temperature;humidity
7934;DHT22;4012;48.896;9.192;2023-04-12T00:01:48;10.10;99.90
7934;DHT22;4012;48.896;9.192;2023-04-12T00:04:14;10.10;99.90
7934;DHT22;4012;48.896;9.192;2023-04-12T00:06:41;10.10;99.90
7934;DHT22;4012;48.896;9.192;2023-04-12T00:09:07;10.10;99.90
7934;DHT22;4012;48.896;9.192;2023-04-12T00:11:33;10.10;99.90
7934;DHT22;4012;48.896;9.192;2023-04-12T00:13:59;10.00;99.90
7934;DHT22;4012;48.896;9.192;2023-04-12T00:16:25;10.00;99.90
7934;DHT22;4012;48.896;9.192;2023-04-12T00:18:50;9.90;99.90
7934;DHT22;4012;48.896;9.192;2023-04-12T00:21:16;10.00;99.90
7934;DHT22;4012;48.896;9.192;2023-04-12T00:23:44;9.90;99.90
7934;DHT22;4012;48.896;9.192;2023-04-12T00:26:10;9.90;99.90
7934;DHT22;4012;48.896;9.192;2023-04-12T00:28:35;10.00;99.90
7934;DHT22;4012;48.896;9.192;2023-04-12T00:31:01;9.90;99.90
7934;DHT22;4012;48.896;9.192;2023-04-12T00:33:27;9.90;99.90
7934;DHT22;4012;48.896;9.192;2023-04-12T00:35:52;10.00;99.90
7934;DHT22;4012;48.896;9.192;2023-04-12T00:38:18;9.90;99.90
7934;DHT22;4012;48.896;9.192;2023-04-12T00:40:44;10.00;99.90
7934;DHT22;4012;48.896;9.192;2023-04-12T00:43:10;10.00;99.90
7934;DHT22;4012;48.896;9.192;2023-04-12T00:45:44;10.10;99.90
7934;DHT22;4012;48.896;9.192;2023-04-12T00:48:10;10.10;99.90
7934;DHT22;4012;48.896;9.192;2023-04-12T00:50:36;10.10;99.90
7934;DHT22;4012;48.896;9.192;2023-04-12T00:53:03;10.10;99.90
7934;DHT22;4012;48.896;9.192;2023-04-12T00:55:28;9.90;99.90
7934;DHT22;4012;48.896;9.192;2023-04-12T00:57:55;9.90;99.90
7934;DHT22;4012;48.896;9.192;2023-04-12T01:00:20;9.90;99.90
7934;DHT22;4012;48.896;9.192;2023-04-12T01:02:46;9.80;99.90
7934;DHT22;4012;48.896;9.192;2023-04-12T01:05:17;9.80;99.90
7934;DHT22;4012;48.896;9.192;2023-04-12T01:10:55;9.80;99.90
7934;DHT22;4012;48.896;9.192;2023-04-12T01:13:31;9.70;99.90
7934;DHT22;4012;48.896;9.192;2023-04-12T01:16:11;9.60;99.90
7934;DHT22;4012;48.896;9.192;2023-04-12T01:18:41;9.60;99.90
7934;DHT22;4012;48.896;9.192;2023-04-12T01:21:15;9.50;99.90
7934;DHT22;4012;48.896;9.192;2023-04-12T01:26:45;9.40;99.90
7934;DHT22;4012;48.896;9.192;2023-04-12T01:29:13;9.30;99.90
7934;DHT22;4012;48.896;9.192;2023-04-12T01:31:46;9.30;99.90
7934;DHT22;4012;48.896;9.192;2023-04-12T01:34:14;9.20;99.90
7934;DHT22;4012;48.896;9.192;2023-04-12T01:36:43;9.20;99.90
7934;DHT22;4012;48.896;9.192;2023-04-12T01:39:10;9.10;99.90
7934;DHT22;4012;48.896;9.192;2023-04-12T01:41:40;9.10;99.90
7934;DHT22;4012;48.896;9.192;2023-04-12T01:44:14;9.10;99.90
7934;DHT22;4012;48.896;9.192;2023-04-12T01:46:42;9.10;99.90
7934;DHT22;4012;48.896;9.192;2023-04-12T01:49:08;9.10;99.90
7934;DHT22;4012;48.896;9.192;2023-04-12T01:51:51;9.00;99.90
7934;DHT22;4012;48.896;9.192;2023-04-12T01:54:28;9.00;99.90
7934;DHT22;4012;48.896;9.192;2023-04-12T01:56:57;9.10;99.90
7934;DHT22;4012;48.896;9.192;2023-04-12T01:59:31;9.10;99.90
7934;DHT22;4012;48.896;9.192;2023-04-12T02:01:59;9.00;99.90
7934;DHT22;4012;48.896;9.192;2023-04-12T02:04:25;9.10;99.90
7934;DHT22;4012;48.896;9.192;2023-04-12T02:06:52;9.10;99.90
7934;DHT22;4012;48.896;9.192;2023-04-12T02:09:18;9.10;99.90
7934;DHT22;4012;48.896;9.192;2023-04-12T02:11:47;9.00;99.90
7934;DHT22;4012;48.896;9.192;2023-04-12T02:14:13;9.00;99.90
7934;DHT22;4012;48.896;9.192;2023-04-12T02:16:39;9.00;99.90
7934;DHT22;4012;48.896;9.192;2023-04-12T02:19:07;9.00;99.90
7934;DHT22;4012;48.896;9.192;2023-04-12T02:21:43;8.90;99.90
7934;DHT22;4012;48.896;9.192;2023-04-12T02:24:09;8.90;99.90
7934;DHT22;4012;48.896;9.192;2023-04-12T02:26:35;8.90;99.90
7934;DHT22;4012;48.896;9.192;2023-04-12T02:29:02;8.80;99.90
7934;DHT22;4012;48.896;9.192;2023-04-12T02:31:27;8.70;99.90
7934;DHT22;4012;48.896;9.192;2023-04-12T02:33:55;8.70;99.90
7934;DHT22;4012;48.896;9.192;2023-04-12T02:36:20;8.70;99.90
7934;DHT22;4012;48.896;9.192;2023-04-12T02:38:46;8.70;99.90
7934;DHT22;4012;48.896;9.192;2023-04-12T02:41:18;8.60;99.90
7934;DHT22;4012;48.896;9.192;2023-04-12T02:43:45;8.60;99.90
7934;DHT22;4012;48.896;9.192;2023-04-12T02:46:14;8.60;99.90
7934;DHT22;4012;48.896;9.192;2023-04-12T02:48:40;8.50;99.90
7934;DHT22;4012;48.896;9.192;2023-04-12T02:51:06;8.50;99.90
7934;DHT22;4012;48.896;9.192;2023-04-12T02:53:31;8.50;99.90
7934;DHT22;4012;48.896;9.192;2023-04-12T02:55:57;8.50;99.90
7934;DHT22;4012;48.896;9.192;2023-04-12T02:58:25;8.40;99.90
7934;DHT22;4012;48.896;9.192;2023-04-12T03:00:52;8.40;99.90
7934;DHT22;4012;48.896;9.192;2023-04-12T03:03:17;8.30;99.90
7934;DHT22;4012;48.896;9.192;2023-04-12T03:05:43;8.30;99.90
7934;DHT22;4012;48.896;9.192;2023-04-12T03:08:12;8.30;99.90
7934;DHT22;4012;48.896;9.192;2023-04-12T03:10:38;8.30;99.90
7934;DHT22;4012;48.896;9.192;2023-04-12T03:13:03;8.30;99.90
7934;DHT22;4012;48.896;9.192;2023-04-12T03:15:30;8.30;99.90
7934;DHT22;4012;48.896;9.192;2023-04-12T03:17:55;8.30;99.90
7934;DHT22;4012;48.896;9.192;2023-04-12T03:20:21;8.20;99.90
7934;DHT22;4012;48.896;9.192;2023-04-12T03:22:49;8.20;99.90
7934;DHT22;4012;48.896;9.192;2023-04-12T03:25:15;8.10;99.90
7934;DHT22;4012;48.896;9.192;2023-04-12T03:27:43;8.10;99.90
7934;DHT22;4012;48.896;9.192;2023-04-12T03:30:09;8.10;99.90
7934;DHT22;4012;48.896;9.192;2023-04-12T03:32:38;8.10;99.90
7934;DHT22;4012;48.896;9.192;2023-04-12T03:35:04;8.10;99.90
7934;DHT22;4012;48.896;9.192;2023-04-12T03:37:32;8.10;99.90
7934;DHT22;4012;48.896;9.192;2023-04-12T03:39:57;8.10;99.90
7934;DHT22;4012;48.896;9.192;2023-04-12T03:42:23;8.20;99.90
7934;DHT22;4012;48.896;9.192;2023-04-12T03:44:49;8.10;99.90
7934;DHT22;4012;48.896;9.192;2023-04-12T03:47:16;8.10;99.90
7934;DHT22;4012;48.896;9.192;2023-04-12T03:49:42;8.10;99.90
7934;DHT22;4012;48.896;9.192;2023-04-12T03:52:08;8.10;99.90
7934;DHT22;4012;48.896;9.192;2023-04-12T03:54:33;8.10;99.90
7934;DHT22;4012;48.896;9.192;2023-04-12T03:56:59;8.10;99.90
7934;DHT22;4012;48.896;9.192;2023-04-12T03:59:26;8.10;99.90
7934;DHT22;4012;48.896;9.192;2023-04-12T04:01:52;8.10;99.90
7934;DHT22;4012;48.896;9.192;2023-04-12T04:04:18;8.10;99.90
7934;DHT22;4012;48.896;9.192;2023-04-12T04:06:44;8.10;99.90
7934;DHT22;4012;48.896;9.192;2023-04-12T04:09:10;8.10;99.90
7934;DHT22;4012;48.896;9.192;2023-04-12T04:11:36;8.20;99.90
7934;DHT22;4012;48.896;9.192;2023-04-12T04:14:02;8.20;99.90
7934;DHT22;4012;48.896;9.192;2023-04-12T04:16:28;8.20;99.90
7934;DHT22;4012;48.896;9.192;2023-04-12T04:18:55;8.10;99.90
7934;DHT22;4012;48.896;9.192;2023-04-12T04:21:21;8.10;99.90
7934;DHT22;4012;48.896;9.192;2023-04-12T04:23:47;8.10;99.90
7934;DHT22;4012;48.896;9.192;2023-04-12T04:26:13;8.10;99.90
7934;DHT22;4012;48.896;9.192;2023-04-12T04:28:41;8.10;99.90
7934;DHT22;4012;48.896;9.192;2023-04-12T04:31:09;8.10;99.90
7934;DHT22;4012;48.896;9.192;2023-04-12T04:33:35;8.10;99.90
7934;DHT22;4012;48.896;9.192;2023-04-12T04:36:02;8.00;99.90
7934;DHT22;4012;48.896;9.192;2023-04-12T04:38:32;8.00;99.90
7934;DHT22;4012;48.896;9.192;2023-04-12T04:40:59;8.00;99.90
7934;DHT22;4012;48.896;9.192;2023-04-12T04:43:28;8.00;99.90
7934;DHT22;4012;48.896;9.192;2023-04-12T04:45:58;8.00;99.90
7934;DHT22;4012;48.896;9.192;2023-04-12T04:48:25;8.00;99.90
7934;DHT22;4012;48.896;9.192;2023-04-12T04:50:51;8.00;99.90
7934;DHT22;4012;48.896;9.192;2023-04-12T04:53:18;8.00;99.90
7934;DHT22;4012;48.896;9.192;2023-04-12T04:55:44;8.00;99.90
7934;DHT22;4012;48.896;9.192;2023-04-12T04:58:10;8.00;99.90
7934;DHT22;4012;48.896;9.192;2023-04-12T05:00:36;8.00;99.90
7934;DHT22;4012;48.896;9.192;2023-04-12T05:03:03;8.00;99.90
7934;DHT22;4012;48.896;9.192;2023-04-12T05:05:28;8.10;99.90
7934;DHT22;4012;48.896;9.192;2023-04-12T05:07:55;8.00;99.90
7934;DHT22;4012;48.896;9.192;2023-04-12T05:10:21;8.00;99.90
7934;DHT22;4012;48.896;9.192;2023-04-12T05:12:47;8.10;99.90
7934;DHT22;4012;48.896;9.192;2023-04-12T05:15:13;8.00;99.90
7934;DHT22;4012;48.896;9.192;2023-04-12T05:17:38;8.00;99.90
7934;DHT22;4012;48.896;9.192;2023-04-12T05:20:05;8.00;99.90
7934;DHT22;4012;48.896;9.192;2023-04-12T05:22:34;8.00;99.90
7934;DHT22;4012;48.896;9.192;2023-04-12T05:24:59;8.10;99.90
7934;DHT22;4012;48.896;9.192;2023-04-12T05:27:25;8.10;99.90
7934;DHT22;4012;48.896;9.192;2023-04-12T05:29:52;8.00;99.90
7934;DHT22;4012;48.896;9.192;2023-04-12T05:32:18;8.10;99.90
7934;DHT22;4012;48.896;9.192;2023-04-12T05:34:44;8.10;99.90
7934;DHT22;4012;48.896;9.192;2023-04-12T05:37:10;8.10;99.90
7934;DHT22;4012;48.896;9.192;2023-04-12T05:39:35;8.10;99.90
7934;DHT22;4012;48.896;9.192;2023-04-12T05:42:01;8.00;99.90
7934;DHT22;4012;48.896;9.192;2023-04-12T05:44:26;8.10;99.90
7934;DHT22;4012;48.896;9.192;2023-04-12T05:46:52;8.10;99.90
7934;DHT22;4012;48.896;9.192;2023-04-12T05:49:18;8.00;99.90
7934;DHT22;4012;48.896;9.192;2023-04-12T05:51:43;8.10;99.90
7934;DHT22;4012;48.896;9.192;2023-04-12T05:54:09;8.10;99.90
7934;DHT22;4012;48.896;9.192;2023-04-12T05:56:35;8.10;99.90
7934;DHT22;4012;48.896;9.192;2023-04-12T05:59:00;8.20;99.90
7934;DHT22;4012;48.896;9.192;2023-04-12T06:01:27;8.20;99.90
7934;DHT22;4012;48.896;9.192;2023-04-12T06:04:02;8.20;99.90
7934;DHT22;4012;48.896;9.192;2023-04-12T06:06:28;8.10;99.90
7934;DHT22;4012;48.896;9.192;2023-04-12T06:08:55;8.20;99.90
7934;DHT22;4012;48.896;9.192;2023-04-12T06:11:29;8.20;99.90
7934;DHT22;4012;48.896;9.192;2023-04-12T06:13:54;8.20;99.90
7934;DHT22;4012;48.896;9.192;2023-04-12T06:16:20;8.20;99.90
7934;DHT22;4012;48.896;9.192;2023-04-12T06:18:45;8.20;99.90
7934;DHT22;4012;48.896;9.192;2023-04-12T06:21:12;8.30;99.90
7934;DHT22;4012;48.896;9.192;2023-04-12T06:23:37;8.20;99.90
7934;DHT22;4012;48.896;9.192;2023-04-12T06:26:03;8.30;99.90
7934;DHT22;4012;48.896;9.192;2023-04-12T06:28:29;8.30;99.90
7934;DHT22;4012;48.896;9.192;2023-04-12T06:30:54;8.30;99.90
7934;DHT22;4012;48.896;9.192;2023-04-12T06:33:20;8.30;99.90
7934;DHT22;4012;48.896;9.192;2023-04-12T06:35:49;8.30;99.90
7934;DHT22;4012;48.896;9.192;2023-04-12T06:38:15;8.30;99.90
7934;DHT22;4012;48.896;9.192;2023-04-12T06:40:41;8.30;99.90
7934;DHT22;4012;48.896;9.192;2023-04-12T06:43:07;8.20;99.90
7934;DHT22;4012;48.896;9.192;2023-04-12T06:45:32;8.20;99.90
7934;DHT22;4012;48.896;9.192;2023-04-12T06:47:58;8.20;99.90
7934;DHT22;4012;48.896;9.192;2023-04-12T06:50:24;8.30;99.90
7934;DHT22;4012;48.896;9.192;2023-04-12T06:52:50;8.40;99.90
7934;DHT22;4012;48.896;9.192;2023-04-12T06:55:16;8.40;99.90
7934;DHT22;4012;48.896;9.192;2023-04-12T06:57:42;8.50;99.90
7934;DHT22;4012;48.896;9.192;2023-04-12T07:00:09;8.50;99.90
7934;DHT22;4012;48.896;9.192;2023-04-12T07:02:35;8.50;99.90
7934;DHT22;4012;48.896;9.192;2023-04-12T07:05:01;8.50;99.90
7934;DHT22;4012;48.896;9.192;2023-04-12T07:07:26;8.60;99.90
7934;DHT22;4012;48.896;9.192;2023-04-12T07:09:52;8.60;99.90
7934;DHT22;4012;48.896;9.192;2023-04-12T07:12:17;8.60;99.90
7934;DHT22;4012;48.896;9.192;2023-04-12T07:14:43;8.60;99.90
7934;DHT22;4012;48.896;9.192;2023-04-12T07:17:09;8.70;99.90
7934;DHT22;4012;48.896;9.192;2023-04-12T07:19:35;8.70;99.90
7934;DHT22;4012;48.896;9.192;2023-04-12T07:22:01;8.90;99.90
7934;DHT22;4012;48.896;9.192;2023-04-12T07:24:28;9.00;99.90
7934;DHT22;4012;48.896;9.192;2023-04-12T07:26:54;9.10;99.90
7934;DHT22;4012;48.896;9.192;2023-04-12T07:29:19;9.10;99.90
7934;DHT22;4012;48.896;9.192;2023-04-12T07:31:45;9.10;99.90
7934;DHT22;4012;48.896;9.192;2023-04-12T07:34:11;9.10;99.90
7934;DHT22;4012;48.896;9.192;2023-04-12T07:36:37;9.20;99.90
7934;DHT22;4012;48.896;9.192;2023-04-12T07:39:03;9.40;99.90
7934;DHT22;4012;48.896;9.192;2023-04-12T07:41:28;9.50;99.90
7934;DHT22;4012;48.896;9.192;2023-04-12T07:43:54;9.60;99.90
7934;DHT22;4012;48.896;9.192;2023-04-12T07:46:20;9.70;99.90
7934;DHT22;4012;48.896;9.192;2023-04-12T07:48:45;9.70;99.90
7934;DHT22;4012;48.896;9.192;2023-04-12T07:51:11;9.90;99.90
7934;DHT22;4012;48.896;9.192;2023-04-12T07:53:37;10.00;99.90
7934;DHT22;4012;48.896;9.192;2023-04-12T07:56:03;10.00;99.90
7934;DHT22;4012;48.896;9.192;2023-04-12T07:58:32;10.00;99.90
7934;DHT22;4012;48.896;9.192;2023-04-12T08:00:59;10.00;99.90
7934;DHT22;4012;48.896;9.192;2023-04-12T08:03:24;10.00;99.90
7934;DHT22;4012;48.896;9.192;2023-04-12T08:05:51;9.90;99.90
7934;DHT22;4012;48.896;9.192;2023-04-12T08:08:21;10.00;99.90
7934;DHT22;4012;48.896;9.192;2023-04-12T08:10:47;10.10;99.90
7934;DHT22;4012;48.896;9.192;2023-04-12T08:13:13;10.10;99.90
7934;DHT22;4012;48.896;9.192;2023-04-12T08:15:39;10.20;99.90
7934;DHT22;4012;48.896;9.192;2023-04-12T08:18:05;10.20;99.90
7934;DHT22;4012;48.896;9.192;2023-04-12T08:20:31;10.20;99.90
7934;DHT22;4012;48.896;9.192;2023-04-12T08:22:57;10.30;99.90
7934;DHT22;4012;48.896;9.192;2023-04-12T08:25:23;10.30;99.90
7934;DHT22;4012;48.896;9.192;2023-04-12T08:27:49;10.30;99.90
7934;DHT22;4012;48.896;9.192;2023-04-12T08:30:16;10.20;99.90
7934;DHT22;4012;48.896;9.192;2023-04-12T08:32:42;10.20;99.90
7934;DHT22;4012;48.896;9.192;2023-04-12T08:35:08;10.10;99.90
7934;DHT22;4012;48.896;9.192;2023-04-12T08:37:34;10.10;99.90
7934;DHT22;4012;48.896;9.192;2023-04-12T08:40:03;10.10;99.90
7934;DHT22;4012;48.896;9.192;2023-04-12T08:42:31;10.10;99.90
7934;DHT22;4012;48.896;9.192;2023-04-12T08:44:58;10.20;99.90
7934;DHT22;4012;48.896;9.192;2023-04-12T08:47:29;10.10;99.90
7934;DHT22;4012;48.896;9.192;2023-04-12T08:49:55;10.20;99.90
7934;DHT22;4012;48.896;9.192;2023-04-12T08:52:21;10.30;99.90
7934;DHT22;4012;48.896;9.192;2023-04-12T08:54:47;10.40;99.90
7934;DHT22;4012;48.896;9.192;2023-04-12T08:57:13;10.40;99.90
7934;DHT22;4012;48.896;9.192;2023-04-12T08:59:41;10.50;99.90
7934;DHT22;4012;48.896;9.192;2023-04-12T09:02:08;10.60;99.90
7934;DHT22;4012;48.896;9.192;2023-04-12T09:04:34;10.70;99.90
7934;DHT22;4012;48.896;9.192;2023-04-12T09:07:11;10.90;99.90
7934;DHT22;4012;48.896;9.192;2023-04-12T09:09:42;11.10;99.90
7934;DHT22;4012;48.896;9.192;2023-04-12T09:12:08;11.20;99.90
7934;DHT22;4012;48.896;9.192;2023-04-12T09:14:34;11.20;99.90
7934;DHT22;4012;48.896;9.192;2023-04-12T09:16:59;11.20;99.90
7934;DHT22;4012;48.896;9.192;2023-04-12T09:19:32;11.20;99.90
7934;DHT22;4012;48.896;9.192;2023-04-12T09:21:58;11.20;99.90
7934;DHT22;4012;48.896;9.192;2023-04-12T09:24:24;11.30;99.90
7934;DHT22;4012;48.896;9.192;2023-04-12T09:27:02;11.30;99.90
7934;DHT22;4012;48.896;9.192;2023-04-12T09:29:29;11.30;99.90
7934;DHT22;4012;48.896;9.192;2023-04-12T09:32:04;11.40;99.90
7934;DHT22;4012;48.896;9.192;2023-04-12T09:34:31;11.50;99.90
7934;DHT22;4012;48.896;9.192;2023-04-12T09:36:57;11.50;99.90
7934;DHT22;4012;48.896;9.192;2023-04-12T09:39:33;11.60;99.90
7934;DHT22;4012;48.896;9.192;2023-04-12T09:42:06;11.80;99.90
7934;DHT22;4012;48.896;9.192;2023-04-12T09:44:32;11.90;99.90
7934;DHT22;4012;48.896;9.192;2023-04-12T09:46:59;12.10;99.90
7934;DHT22;4012;48.896;9.192;2023-04-12T09:49:42;12.20;99.90
7934;DHT22;4012;48.896;9.192;2023-04-12T09:52:10;12.30;99.90
7934;DHT22;4012;48.896;9.192;2023-04-12T09:54:46;12.40;99.90
7934;DHT22;4012;48.896;9.192;2023-04-12T09:57:17;12.60;99.90
7934;DHT22;4012;48.896;9.192;2023-04-12T09:59:45;12.60;99.90
7934;DHT22;4012;48.896;9.192;2023-04-12T10:02:17;12.60;99.90
7934;DHT22;4012;48.896;9.192;2023-04-12T10:04:44;12.40;99.90
7934;DHT22;4012;48.896;9.192;2023-04-12T10:07:10;12.60;99.90
7934;DHT22;4012;48.896;9.192;2023-04-12T10:09:37;12.60;99.90
7934;DHT22;4012;48.896;9.192;2023-04-12T10:12:04;12.70;99.90
7934;DHT22;4012;48.896;9.192;2023-04-12T10:14:30;12.80;99.90
7934;DHT22;4012;48.896;9.192;2023-04-12T10:16:58;12.80;99.90
7934;DHT22;4012;48.896;9.192;2023-04-12T10:19:25;12.90;99.90
7934;DHT22;4012;48.896;9.192;2023-04-12T10:21:52;13.00;99.90
7934;DHT22;4012;48.896;9.192;2023-04-12T10:24:20;13.00;99.90
7934;DHT22;4012;48.896;9.192;2023-04-12T10:26:47;13.20;99.90
7934;DHT22;4012;48.896;9.192;2023-04-12T10:29:31;13.40;99.90
7934;DHT22;4012;48.896;9.192;2023-04-12T10:32:19;13.60;99.90
7934;DHT22;4012;48.896;9.192;2023-04-12T10:34:50;13.80;99.90
7934;DHT22;4012;48.896;9.192;2023-04-12T10:37:16;14.00;99.90
7934;DHT22;4012;48.896;9.192;2023-04-12T10:39:52;14.10;99.90
7934;DHT22;4012;48.896;9.192;2023-04-12T10:44:43;14.10;99.90
7934;DHT22;4012;48.896;9.192;2023-04-12T10:47:09;14.00;99.90
7934;DHT22;4012;48.896;9.192;2023-04-12T10:49:35;14.10;99.90
7934;DHT22;4012;48.896;9.192;2023-04-12T10:54:36;14.10;99.90
7934;DHT22;4012;48.896;9.192;2023-04-12T10:57:03;14.20;99.90
7934;DHT22;4012;48.896;9.192;2023-04-12T10:59:54;14.60;99.90
7934;DHT22;4012;48.896;9.192;2023-04-12T11:02:21;14.30;99.90
7934;DHT22;4012;48.896;9.192;2023-04-12T11:05:06;14.70;99.90
7934;DHT22;4012;48.896;9.192;2023-04-12T11:07:40;14.60;99.90
7934;DHT22;4012;48.896;9.192;2023-04-12T11:10:16;14.50;99.90
7934;DHT22;4012;48.896;9.192;2023-04-12T11:12:49;14.70;99.90
7934;DHT22;4012;48.896;9.192;2023-04-12T11:15:17;14.90;99.90
7934;DHT22;4012;48.896;9.192;2023-04-12T11:17:55;15.40;99.90
7934;DHT22;4012;48.896;9.192;2023-04-12T11:20:21;15.50;99.90
7934;DHT22;4012;48.896;9.192;2023-04-12T11:22:49;14.90;99.90
7934;DHT22;4012;48.896;9.192;2023-04-12T11:25:16;15.00;99.90
7934;DHT22;4012;48.896;9.192;2023-04-12T11:27:48;15.00;99.90
7934;DHT22;4012;48.896;9.192;2023-04-12T11:30:14;15.20;99.90
7934;DHT22;4012;48.896;9.192;2023-04-12T11:32:43;15.30;99.90
7934;DHT22;4012;48.896;9.192;2023-04-12T11:35:09;15.10;99.90
7934;DHT22;4012;48.896;9.192;2023-04-12T11:37:34;14.80;99.90
7934;DHT22;4012;48.896;9.192;2023-04-12T11:40:02;14.90;99.90
7934;DHT22;4012;48.896;9.192;2023-04-12T11:42:31;15.10;99.90
7934;DHT22;4012;48.896;9.192;2023-04-12T11:44:57;15.20;99.90
7934;DHT22;4012;48.896;9.192;2023-04-12T11:47:24;15.50;99.90
7934;DHT22;4012;48.896;9.192;2023-04-12T11:49:52;15.70;99.90
7934;DHT22;4012;48.896;9.192;2023-04-12T11:52:19;15.90;99.90
7934;DHT22;4012;48.896;9.192;2023-04-12T11:54:50;15.90;99.90
7934;DHT22;4012;48.896;9.192;2023-04-12T11:57:17;16.20;99.90
7934;DHT22;4012;48.896;9.192;2023-04-12T11:59:47;16.30;99.90
7934;DHT22;4012;48.896;9.192;2023-04-12T12:02:14;15.90;99.90
7934;DHT22;4012;48.896;9.192;2023-04-12T12:04:43;15.80;99.90
7934;DHT22;4012;48.896;9.192;2023-04-12T12:07:11;15.80;99.90
7934;DHT22;4012;48.896;9.192;2023-04-12T12:09:38;16.00;99.90
7934;DHT22;4012;48.896;9.192;2023-04-12T12:12:04;16.30;99.90
7934;DHT22;4012;48.896;9.192;2023-04-12T12:14:33;16.00;99.90
7934;DHT22;4012;48.896;9.192;2023-04-12T12:17:00;16.10;99.90
7934;DHT22;4012;48.896;9.192;2023-04-12T12:19:36;16.40;99.90
7934;DHT22;4012;48.896;9.192;2023-04-12T12:22:15;16.30;99.90
7934;DHT22;4012;48.896;9.192;2023-04-12T12:24:57;16.10;99.90
7934;DHT22;4012;48.896;9.192;2023-04-12T12:27:30;16.40;99.90
7934;DHT22;4012;48.896;9.192;2023-04-12T12:29:59;16.20;99.90
7934;DHT22;4012;48.896;9.192;2023-04-12T12:32:25;16.10;99.90
7934;DHT22;4012;48.896;9.192;2023-04-12T12:34:57;16.00;99.90
7934;DHT22;4012;48.896;9.192;2023-04-12T12:37:24;16.30;99.90
7934;DHT22;4012;48.896;9.192;2023-04-12T12:40:13;16.10;99.90
7934;DHT22;4012;48.896;9.192;2023-04-12T12:42:51;15.80;99.90
7934;DHT22;4012;48.896;9.192;2023-04-12T12:45:20;15.70;99.90
7934;DHT22;4012;48.896;9.192;2023-04-12T12:47:52;15.90;99.90
7934;DHT22;4012;48.896;9.192;2023-04-12T12:50:21;15.90;99.90
7934;DHT22;4012;48.896;9.192;2023-04-12T12:52:47;16.20;99.90
7934;DHT22;4012;48.896;9.192;2023-04-12T12:55:14;16.40;99.90
7934;DHT22;4012;48.896;9.192;2023-04-12T12:57:44;16.70;99.90
7934;DHT22;4012;48.896;9.192;2023-04-12T13:00:14;16.90;99.90
7934;DHT22;4012;48.896;9.192;2023-04-12T13:02:41;16.80;99.90
7934;DHT22;4012;48.896;9.192;2023-04-12T13:05:08;16.30;99.90
7934;DHT22;4012;48.896;9.192;2023-04-12T13:07:35;16.30;99.90
7934;DHT22;4012;48.896;9.192;2023-04-12T13:10:01;16.40;99.90
7934;DHT22;4012;48.896;9.192;2023-04-12T13:12:27;16.30;99.90
7934;DHT22;4012;48.896;9.192;2023-04-12T13:14:53;16.10;99.90
7934;DHT22;4012;48.896;9.192;2023-04-12T13:17:19;16.00;99.90
7934;DHT22;4012;48.896;9.192;2023-04-12T13:19:45;15.90;99.90
7934;DHT22;4012;48.896;9.192;2023-04-12T13:22:12;16.20;99.90
7934;DHT22;4012;48.896;9.192;2023-04-12T13:24:38;16.40;99.90
7934;DHT22;4012;48.896;9.192;2023-04-12T13:27:04;16.40;99.90
7934;DHT22;4012;48.896;9.192;2023-04-12T13:29:30;16.40;99.90
7934;DHT22;4012;48.896;9.192;2023-04-12T13:31:55;16.30;99.90
7934;DHT22;4012;48.896;9.192;2023-04-12T13:34:21;16.60;99.90
7934;DHT22;4012;48.896;9.192;2023-04-12T13:36:48;16.60;99.90
7934;DHT22;4012;48.896;9.192;2023-04-12T13:39:13;16.40;99.90
7934;DHT22;4012;48.896;9.192;2023-04-12T13:41:39;15.90;99.90
7934;DHT22;4012;48.896;9.192;2023-04-12T13:44:05;15.80;99.90
7934;DHT22;4012;48.896;9.192;2023-04-12T13:46:31;16.10;99.90
7934;DHT22;4012;48.896;9.192;2023-04-12T13:48:56;16.40;99.90
7934;DHT22;4012;48.896;9.192;2023-04-12T13:51:22;16.70;99.90
7934;DHT22;4012;48.896;9.192;2023-04-12T13:53:48;16.60;99.90
7934;DHT22;4012;48.896;9.192;2023-04-12T13:56:13;16.70;99.90
7934;DHT22;4012;48.896;9.192;2023-04-12T13:58:40;16.80;99.90
7934;DHT22;4012;48.896;9.192;2023-04-12T14:01:07;16.70;99.90
7934;DHT22;4012;48.896;9.192;2023-04-12T14:03:33;16.70;99.90
7934;DHT22;4012;48.896;9.192;2023-04-12T14:05:58;16.60;99.90
7934;DHT22;4012;48.896;9.192;2023-04-12T14:08:26;16.50;99.90
7934;DHT22;4012;48.896;9.192;2023-04-12T14:10:52;16.40;99.90
7934;DHT22;4012;48.896;9.192;2023-04-12T14:13:21;16.10;99.90
7934;DHT22;4012;48.896;9.192;2023-04-12T14:15:49;15.90;99.90
7934;DHT22;4012;48.896;9.192;2023-04-12T14:18:16;16.00;99.90
7934;DHT22;4012;48.896;9.192;2023-04-12T14:20:42;15.90;99.90
7934;DHT22;4012;48.896;9.192;2023-04-12T14:23:10;15.80;99.90
7934;DHT22;4012;48.896;9.192;2023-04-12T14:25:38;15.80;99.90
7934;DHT22;4012;48.896;9.192;2023-04-12T14:28:03;15.70;99.90
7934;DHT22;4012;48.896;9.192;2023-04-12T14:30:29;15.70;99.90
7934;DHT22;4012;48.896;9.192;2023-04-12T14:32:54;15.70;99.90
7934;DHT22;4012;48.896;9.192;2023-04-12T14:35:20;15.70;99.90
7934;DHT22;4012;48.896;9.192;2023-04-12T14:37:46;16.00;99.90
7934;DHT22;4012;48.896;9.192;2023-04-12T14:40:12;15.90;99.90
7934;DHT22;4012;48.896;9.192;2023-04-12T14:42:38;16.00;99.90
7934;DHT22;4012;48.896;9.192;2023-04-12T14:45:03;16.10;99.90
7934;DHT22;4012;48.896;9.192;2023-04-12T14:47:32;16.20;99.90
7934;DHT22;4012;48.896;9.192;2023-04-12T14:49:58;16.50;99.90
7934;DHT22;4012;48.896;9.192;2023-04-12T14:52:23;16.40;99.90
7934;DHT22;4012;48.896;9.192;2023-04-12T14:54:49;16.60;99.90
7934;DHT22;4012;48.896;9.192;2023-04-12T14:57:15;16.50;99.90
7934;DHT22;4012;48.896;9.192;2023-04-12T14:59:40;16.20;99.90
7934;DHT22;4012;48.896;9.192;2023-04-12T15:02:06;16.20;99.90
7934;DHT22;4012;48.896;9.192;2023-04-12T15:04:31;16.10;99.90
7934;DHT22;4012;48.896;9.192;2023-04-12T15:06:57;15.90;99.90
7934;DHT22;4012;48.896;9.192;2023-04-12T15:09:23;15.80;99.90
7934;DHT22;4012;48.896;9.192;2023-04-12T15:11:49;15.50;99.90
7934;DHT22;4012;48.896;9.192;2023-04-12T15:14:19;15.30;99.90
7934;DHT22;4012;48.896;9.192;2023-04-12T15:16:45;14.90;99.90
7934;DHT22;4012;48.896;9.192;2023-04-12T15:19:13;13.80;99.90
7934;DHT22;4012;48.896;9.192;2023-04-12T15:21:39;12.70;99.90
7934;DHT22;4012;48.896;9.192;2023-04-12T15:24:04;12.40;99.90
7934;DHT22;4012;48.896;9.192;2023-04-12T15:26:30;12.20;99.90
7934;DHT22;4012;48.896;9.192;2023-04-12T15:28:56;12.00;99.90
7934;DHT22;4012;48.896;9.192;2023-04-12T15:31:21;12.10;99.90
7934;DHT22;4012;48.896;9.192;2023-04-12T15:33:47;12.00;99.90
7934;DHT22;4012;48.896;9.192;2023-04-12T15:36:15;11.90;99.90
7934;DHT22;4012;48.896;9.192;2023-04-12T15:38:41;11.70;99.90
7934;DHT22;4012;48.896;9.192;2023-04-12T15:41:07;11.70;99.90
7934;DHT22;4012;48.896;9.192;2023-04-12T15:43:33;11.50;99.90
7934;DHT22;4012;48.896;9.192;2023-04-12T15:45:59;11.60;99.90
7934;DHT22;4012;48.896;9.192;2023-04-12T15:48:25;11.80;99.90
7934;DHT22;4012;48.896;9.192;2023-04-12T15:50:53;11.90;99.90
7934;DHT22;4012;48.896;9.192;2023-04-12T15:53:21;11.80;99.90
7934;DHT22;4012;48.896;9.192;2023-04-12T15:55:47;11.80;99.90
7934;DHT22;4012;48.896;9.192;2023-04-12T15:58:13;11.80;99.90
7934;DHT22;4012;48.896;9.192;2023-04-12T16:00:39;11.90;99.90
7934;DHT22;4012;48.896;9.192;2023-04-12T16:03:05;12.10;99.90
7934;DHT22;4012;48.896;9.192;2023-04-12T16:05:32;12.30;99.90
7934;DHT22;4012;48.896;9.192;2023-04-12T16:07:59;12.30;99.90
7934;DHT22;4012;48.896;9.192;2023-04-12T16:10:25;12.30;99.90
7934;DHT22;4012;48.896;9.192;2023-04-12T16:12:52;12.40;99.90
7934;DHT22;4012;48.896;9.192;2023-04-12T16:15:19;12.40;99.90
7934;DHT22;4012;48.896;9.192;2023-04-12T16:17:46;12.60;99.90
7934;DHT22;4012;48.896;9.192;2023-04-12T16:20:13;12.80;99.90
7934;DHT22;4012;48.896;9.192;2023-04-12T16:22:50;12.90;99.90